Gough Island, South Africa
Current Conditions -  °F | °C
As of 12:00 PM on Tuesday 21 Oct 2014 (Local Time) from FACT Reporting Station
Clear Clear  
Wind Chill: 73°   Ceiling: Unl
Heat Index: 73°   Visibility: 6mi
Dew Point: 55°   Wind: 6mph
Humidity: 53%   Direction: NA
Pressure: 30.03"   Gusts: NA
Location:  40.35°S, 9.88°W
Report Text: FACT 211000Z VRB05KT CAVOK 23/13 Q1017 NOSIG
Loading
Personal Weather Stations






























Interactive Weather Map
Tropical Storm Tracking
New forecast layout! Learn more

10-Day Weather Forecast

Advertisements
Track Severe Weather on mobile